Detall de PIREP

Printer-friendly versionPDF version

[2014/09/20 16:09:00]
Flight IATA:CT2213
Pilot Number:044
Company ICAO:CAT
Aircraft Type:B463/A
PAX:90
Aircraft Registration:PAX
Departing Airport: LFST
Destination Airport: LFMP
Alternate Airport:LFBO
Online: VATSIM
Route:BERUG V32 EPL G21 RLP G21 MOU A27 CFA A27 MEN A27 SIJAN
Flight Level:F190
No Slew and time accel
No pause
Crash detect
Detect pilot in Cockpit between each 30 and 45 minutes
16:09 Zero fuel Weight: 75041 Lbs, Fuel Weight: 10037 Lbs
16:09 VATSIM:LFST 201600Z AUTO 05002KT 9999 SCT043/// BKN066/// BKN110/// ///CB 24/17 Q1015
16:09 VATSIM:LFMP 201600Z 13005KT 9999 FEW030 BKN110 25/19 Q1015 NOSIG
16:09 Parking Brakes off
16:16 Take-off
16:16 Take off Weight: 84674 Lbs
16:16 Wind: 269º @ 004 Knots Heading: 232º
16:16 POS N48º 32´ 06´´ E007º 37´ 16´´
16:16 Gear Up: 145 Knots
16:16 Flaps:1 at 145 Knots
16:16 Flaps:0 at 138 Knots
16:21 Flaps:4 at 263 Knots
16:21 Gear Down: 235 Knots
16:22 Gear Up: 194 Knots
16:22 Flaps:2 at 165 Knots
16:22 Flaps:0 at 164 Knots
16:24 TOC
16:24 Fuel Weight: 8316 Lb
16:30 TOD
16:30 Fuel Weight: 7805 Lb
16:31 Wind:193º@025 Knots Heading: 222º Ground Speed: 334 Knots Altitude 18556 ft
16:41 TOC
16:41 Fuel Weight: 6785 Lb
16:46 Wind:261º@017 Knots Heading: 224º Ground Speed: 331 Knots Altitude 19081 ft
17:01 Wind:261º@017 Knots Heading: 201º Ground Speed: 344 Knots Altitude 19081 ft
17:16 Wind:289º@006 Knots Heading: 181º Ground Speed: 355 Knots Altitude 19133 ft
17:28 TOD
17:28 Fuel Weight: 2748 Lb
17:31 Wind:137º@014 Knots Heading: 184º Ground Speed: 250 Knots Altitude 15269 ft
17:43 Flaps:1 at 175 Knots
17:46 Wind:156º@003 Knots Heading: 236º Ground Speed: 167 Knots Altitude 1945 ft
17:46 Flaps:2 at 160 Knots
17:47 Flaps:3 at 151 Knots
17:47 Gear Down: 151 Knots
17:50 Flaps:4 at 129 Knots
17:52 TouchDown:Rate -146 ft/min Speed: 115 Knots
17:52 VATSIM:LFMP 201730Z AUTO VRB03KT 9999 NSC 24/19 Q1016
17:52 Land
17:52 Wind:132º@003 Knots
17:52 Heading: 329º
17:52 Flight Duration: 01:36
17:52 Landing Weight: 76751 Lbs
17:52 POS N42º 44´ 50´´ E002º 52´ 02´´
17:56 Parking brakes on
17:56 Block to Block Duration: 01:47
17:56 Final Fuel: 1563 Lbls
17:56 Spent Fuel: 8474 Lbls
17:56 Flight Length: 472 NM
17:56 TOD Land Length: 78 NM

Exportar CSV

Powered by Drupal - Modified by Danger4k